Huvudsida
METAR-TAF:

METAR-TAF

Flygplatser :

Figari, Frankrike

latitud: 41-30N, longitud: 009-06E, höjd: 26 m

Aktuellt väderrapport

Denna rapport gjordes för 11 minuter sedan, klockan 13:30 UTC
Vind 5 kt från ost/sydost, varierande mellan nord/nordost och syd
Temperatur 18°C
Fuktighet 59%
Tryck 1031 hPa
Sikt 10 km eller mer
Spridda moln på en höjd av 3400 ft

METAR: LFKF 221330Z AUTO 11005KT 030V180 9999 SCT034 18/10 Q1031 NOSIG

Tid: 14:41 (13:41 UTC)

Väderprognos

Denna rapport gjordes för 5 timmar och 41 minuter sedan, klockan 08:00 UTC
Prognos gäller från 22 kl. 09 UTC till 23 kl. 09 UTC
Vind 5 kt från väst/sydväst
Sikt 10 km eller mer
Inga moln under 1 500 m eller inga cumulonimbus
Blir
från 23 kl. 00 UTC till 23 kl. 03 UTC
Vind 15 kt från väst/sydväst

TAF: LFKF 220800Z 2209/2309 24005KT CAVOK BECMG 2300/2303 24015KT

Aktuella väderrapporter och prognoser från 4000 flygplatser (METAR- och TAF-rapporter).

De tillgängliga stationerna syns som gula och röda prickar på kartan.

För musen över prickarna för att se namnen på stationerna.

Klicka sedan för att få väderrapporter och prognoser.

För att ändra kartan: Klicka på de gröna knapparna med ett svart kors på för att zooma in; den gröna knappen med ett streck på för att zooma ut; eller på de gröna pilarna för angränsande kartor.


METAR-TAF: